createdAt,value
2018-04-15T00:00:30.600Z,8.40
2018-04-15T00:01:30.789Z,6.60
2018-04-15T00:02:30.960Z,6.40
2018-04-15T00:03:31.160Z,6.20
2018-04-15T00:04:31.341Z,5.20
2018-04-15T00:05:31.528Z,6.70
2018-04-15T00:06:31.712Z,6.00
2018-04-15T00:07:31.894Z,6.90
2018-04-15T00:08:32.078Z,6.40
2018-04-15T00:09:32.263Z,6.30
2018-04-15T00:10:32.438Z,7.70
2018-04-15T00:11:32.624Z,6.70
2018-04-15T00:12:32.791Z,9.70
2018-04-15T00:13:32.969Z,6.60
2018-04-15T00:14:33.148Z,6.40
2018-04-15T00:15:33.320Z,5.80
2018-04-15T00:16:33.503Z,7.60
2018-04-15T00:17:33.687Z,7.20
2018-04-15T00:18:33.861Z,6.00
2018-04-15T00:19:34.039Z,5.90
2018-04-15T00:20:34.215Z,8.20
2018-04-15T00:21:34.402Z,8.00
2018-04-15T00:22:34.570Z,8.90
2018-04-15T00:23:34.751Z,7.40
2018-04-15T00:24:34.927Z,7.80
2018-04-15T00:25:35.103Z,8.30
2018-04-15T00:26:35.275Z,8.50
2018-04-15T00:27:35.445Z,9.20
2018-04-15T00:28:35.620Z,8.00
2018-04-15T00:29:35.801Z,9.00
2018-04-15T00:30:35.976Z,6.40
2018-04-15T00:31:36.146Z,7.20
2018-04-15T00:32:36.325Z,7.00
2018-04-15T00:33:36.507Z,6.60
2018-04-15T00:34:36.685Z,6.50
2018-04-15T00:35:36.857Z,7.60
2018-04-15T00:36:37.027Z,7.00
2018-04-15T00:37:37.221Z,6.60
2018-04-15T00:38:37.418Z,6.80
2018-04-15T00:39:37.591Z,6.60
2018-04-15T00:40:37.770Z,7.30
2018-04-15T00:41:37.942Z,5.60
2018-04-15T00:42:38.129Z,6.60
2018-04-15T00:43:38.314Z,4.50
2018-04-15T00:44:38.498Z,4.90
2018-04-15T00:45:38.667Z,5.40
2018-04-15T00:46:38.853Z,5.30
2018-04-15T00:47:39.029Z,4.80
2018-04-15T00:48:39.225Z,4.50
2018-04-15T00:49:39.400Z,4.20
2018-04-15T00:50:39.594Z,4.40
2018-04-15T00:51:39.776Z,4.70
2018-04-15T00:52:39.952Z,6.00
2018-04-15T00:53:40.125Z,4.60
2018-04-15T00:54:40.297Z,5.70
2018-04-15T00:55:40.476Z,7.10
2018-04-15T00:56:40.653Z,4.00
2018-04-15T00:57:40.835Z,4.80
2018-04-15T00:58:41.017Z,5.50
2018-04-15T00:59:41.192Z,4.10
2018-04-15T01:00:41.362Z,5.00
2018-04-15T01:01:41.585Z,5.20
2018-04-15T01:02:41.745Z,5.20
2018-04-15T01:03:41.923Z,4.30
2018-04-15T01:04:42.099Z,4.10
2018-04-15T01:05:42.285Z,4.50
2018-04-15T01:06:42.465Z,4.60
2018-04-15T01:07:42.647Z,4.10
2018-04-15T01:08:42.831Z,4.30
2018-04-15T01:09:43.046Z,4.30
2018-04-15T01:10:43.230Z,4.40
2018-04-15T01:11:43.414Z,4.10
2018-04-15T01:12:43.590Z,4.40
2018-04-15T01:13:43.789Z,4.20
2018-04-15T01:14:43.971Z,4.60
2018-04-15T01:15:44.151Z,4.50
2018-04-15T01:16:44.328Z,4.80
2018-04-15T01:17:44.508Z,4.60
2018-04-15T01:18:44.684Z,6.20
2018-04-15T01:19:44.868Z,4.70
2018-04-15T01:20:45.060Z,5.50
2018-04-15T01:21:45.237Z,5.40
2018-04-15T01:22:45.413Z,4.70
2018-04-15T01:23:45.628Z,4.50
2018-04-15T01:24:45.812Z,5.00
2018-04-15T01:25:45.990Z,5.00
2018-04-15T01:26:46.174Z,5.90
2018-04-15T01:27:46.358Z,5.20
2018-04-15T01:28:46.534Z,4.70
2018-04-15T01:29:46.708Z,4.50
2018-04-15T01:30:46.879Z,4.70
2018-04-15T01:31:47.056Z,4.40
2018-04-15T01:32:47.255Z,5.00
2018-04-15T01:33:47.434Z,5.20
2018-04-15T01:34:47.648Z,5.10
2018-04-15T01:35:47.842Z,6.80
2018-04-15T01:36:48.024Z,5.50
2018-04-15T01:37:48.196Z,4.90
2018-04-15T01:38:49.279Z,5.40
2018-04-15T01:39:48.478Z,5.70
2018-04-15T01:40:48.653Z,5.10
2018-04-15T01:41:48.847Z,5.30
2018-04-15T01:42:49.018Z,5.70
2018-04-15T01:43:49.206Z,4.60
2018-04-15T01:44:49.421Z,4.80
2018-04-15T01:45:49.577Z,4.90
2018-04-15T01:46:49.755Z,4.60
2018-04-15T01:47:49.931Z,4.80
2018-04-15T01:48:50.108Z,6.50
2018-04-15T01:49:50.284Z,5.30
2018-04-15T01:50:50.462Z,5.60
2018-04-15T01:51:50.637Z,5.00
2018-04-15T01:52:50.825Z,4.80
2018-04-15T01:53:51.003Z,5.70
2018-04-15T01:54:51.183Z,5.40
2018-04-15T01:55:51.373Z,5.40
2018-04-15T01:56:51.550Z,5.10
2018-04-15T01:57:51.738Z,4.70
2018-04-15T01:58:51.908Z,4.80
2018-04-15T01:59:52.088Z,5.50
2018-04-15T02:00:52.260Z,5.60
2018-04-15T02:01:52.438Z,5.80
2018-04-15T02:02:52.620Z,5.20
2018-04-15T02:03:52.789Z,6.00
2018-04-15T02:04:52.966Z,5.40
2018-04-15T02:05:53.144Z,4.50
2018-04-15T02:06:53.331Z,4.00
2018-04-15T02:07:53.514Z,4.00
2018-04-15T02:08:53.715Z,4.20
2018-04-15T02:09:53.875Z,4.30
2018-04-15T02:10:54.048Z,4.20
2018-04-15T02:11:54.223Z,4.40
2018-04-15T02:12:54.402Z,5.60
2018-04-15T02:13:54.577Z,4.00
2018-04-15T02:14:54.754Z,5.10
2018-04-15T02:15:54.931Z,4.60
2018-04-15T02:16:55.103Z,5.30
2018-04-15T02:17:55.278Z,5.50
2018-04-15T02:18:55.455Z,4.90
2018-04-15T02:19:55.637Z,5.10
2018-04-15T02:20:55.817Z,5.60
2018-04-15T02:21:55.993Z,5.30
2018-04-15T02:22:56.165Z,5.50
2018-04-15T02:23:56.337Z,5.30
2018-04-15T02:24:57.320Z,6.00
2018-04-15T02:25:56.710Z,5.00
2018-04-15T02:26:56.892Z,4.40
2018-04-15T02:27:57.080Z,7.50
2018-04-15T02:28:57.265Z,4.90
2018-04-15T02:29:57.450Z,6.50
2018-04-15T02:30:57.617Z,4.80
2018-04-15T02:31:57.796Z,5.00
2018-04-15T02:32:57.963Z,6.00
2018-04-15T02:33:58.145Z,4.60
2018-04-15T02:34:58.325Z,4.10
2018-04-15T02:35:58.501Z,4.80
2018-04-15T02:36:58.677Z,4.20
2018-04-15T02:37:58.842Z,5.70
2018-04-15T02:38:59.021Z,4.30
2018-04-15T02:39:59.211Z,4.30
2018-04-15T02:41:01.150Z,3.80
2018-04-15T02:41:59.592Z,5.50
2018-04-15T02:42:59.771Z,6.20
2018-04-15T02:44:01.732Z,4.90
2018-04-15T02:45:01.956Z,4.30
2018-04-15T02:46:01.139Z,4.60
2018-04-15T02:47:00.568Z,5.50
2018-04-15T02:48:00.742Z,6.40
2018-04-15T02:49:00.917Z,5.50
2018-04-15T02:50:01.109Z,5.60
2018-04-15T02:51:01.282Z,6.20
2018-04-15T02:52:03.280Z,5.70
2018-04-15T02:53:01.664Z,4.60
2018-04-15T02:54:01.842Z,6.80
2018-04-15T02:55:02.035Z,5.30
2018-04-15T02:56:02.200Z,6.60
2018-04-15T02:57:02.376Z,7.70
2018-04-15T02:58:02.559Z,5.80
2018-04-15T02:59:02.733Z,6.80
2018-04-15T03:00:02.912Z,8.40
2018-04-15T03:01:03.093Z,7.10
2018-04-15T03:02:03.279Z,6.90
2018-04-15T03:03:03.453Z,5.00
2018-04-15T03:04:03.629Z,7.10
2018-04-15T03:05:03.807Z,5.80
2018-04-15T03:06:03.991Z,6.50
2018-04-15T03:07:04.177Z,6.10
2018-04-15T03:08:04.345Z,5.20
2018-04-15T03:09:05.316Z,4.60
2018-04-15T03:10:04.734Z,6.00
2018-04-15T03:11:04.912Z,5.10
2018-04-15T03:12:05.087Z,5.00
2018-04-15T03:13:05.257Z,6.20
2018-04-15T03:14:05.437Z,5.00
2018-04-15T03:15:05.609Z,5.90
2018-04-15T03:16:05.782Z,7.00
2018-04-15T03:17:05.949Z,5.10
2018-04-15T03:18:06.121Z,5.70
2018-04-15T03:19:06.299Z,5.90
2018-04-15T03:20:06.474Z,6.10
2018-04-15T03:21:06.646Z,4.90
2018-04-15T03:22:06.828Z,4.90
2018-04-15T03:23:07.008Z,6.40
2018-04-15T03:24:07.188Z,6.50
2018-04-15T03:25:07.369Z,6.00
2018-04-15T03:26:07.538Z,5.80
2018-04-15T03:27:07.718Z,6.70
2018-04-15T03:28:07.896Z,4.70
2018-04-15T03:29:08.065Z,5.00
2018-04-15T03:30:08.242Z,4.80
2018-04-15T03:31:08.421Z,5.00
2018-04-15T03:32:08.595Z,5.90
2018-04-15T03:33:08.784Z,5.00
2018-04-15T03:34:08.959Z,5.40
2018-04-15T03:35:09.127Z,5.40
2018-04-15T03:36:09.303Z,4.60
2018-04-15T03:37:09.472Z,6.40
2018-04-15T03:38:09.650Z,6.00
2018-04-15T03:39:09.831Z,5.50
2018-04-15T03:40:10.004Z,7.10
2018-04-15T03:41:10.183Z,5.30
2018-04-15T03:42:10.353Z,5.10
2018-04-15T03:43:10.532Z,4.90
2018-04-15T03:44:10.705Z,6.70
2018-04-15T03:45:10.880Z,5.90
2018-04-15T03:46:11.053Z,6.40
2018-04-15T03:47:11.229Z,6.10
2018-04-15T03:48:11.403Z,5.10
2018-04-15T03:49:11.579Z,5.70
2018-04-15T03:50:11.763Z,6.60
2018-04-15T03:51:11.949Z,6.40
2018-04-15T03:52:12.121Z,5.70
2018-04-15T03:53:12.299Z,5.60
2018-04-15T03:54:12.477Z,5.40
2018-04-15T03:55:12.660Z,5.80
2018-04-15T03:56:12.833Z,4.90
2018-04-15T03:57:13.012Z,6.20
2018-04-15T03:58:13.189Z,6.30
2018-04-15T03:59:13.362Z,7.80
2018-04-15T04:00:13.539Z,5.20
2018-04-15T04:01:13.712Z,6.50
2018-04-15T04:02:13.898Z,7.80
2018-04-15T04:03:14.077Z,5.60
2018-04-15T04:04:14.244Z,5.20
2018-04-15T04:05:14.423Z,6.70
2018-04-15T04:06:14.603Z,6.00
2018-04-15T04:07:14.779Z,6.50
2018-04-15T04:08:14.955Z,5.80
2018-04-15T04:09:15.128Z,5.90
2018-04-15T04:10:15.308Z,6.70
2018-04-15T04:11:15.479Z,5.20
2018-04-15T04:12:15.664Z,7.40
2018-04-15T04:13:15.836Z,7.50
2018-04-15T04:14:16.012Z,7.20
2018-04-15T04:15:16.180Z,8.20
2018-04-15T04:16:16.356Z,5.70
2018-04-15T04:17:16.534Z,6.90
2018-04-15T04:18:16.716Z,5.30
2018-04-15T04:19:16.902Z,5.90
2018-04-15T04:20:17.072Z,6.60
2018-04-15T04:21:17.249Z,6.70
2018-04-15T04:22:17.436Z,6.20
2018-04-15T04:23:17.620Z,7.70
2018-04-15T04:24:17.791Z,6.50
2018-04-15T04:25:17.969Z,5.00
2018-04-15T04:26:18.141Z,5.70
2018-04-15T04:27:18.322Z,5.90
2018-04-15T04:28:18.501Z,5.00
2018-04-15T04:29:20.474Z,6.20
2018-04-15T04:30:18.906Z,7.20
2018-04-15T04:31:19.076Z,5.50
2018-04-15T04:32:19.248Z,7.80
2018-04-15T04:33:19.425Z,7.90
2018-04-15T04:34:19.602Z,5.20
2018-04-15T04:35:19.775Z,6.00
2018-04-15T04:36:19.965Z,5.80
2018-04-15T04:37:20.137Z,4.90
2018-04-15T04:38:20.327Z,5.20
2018-04-15T04:39:20.505Z,6.10
2018-04-15T04:40:20.714Z,5.60
2018-04-15T04:41:20.957Z,4.90
2018-04-15T04:42:21.601Z,5.10
2018-04-15T04:43:24.459Z,4.90
2018-04-15T04:44:24.008Z,5.30
2018-04-15T04:45:24.419Z,6.00
2018-04-15T04:46:23.136Z,6.50
2018-04-15T04:47:24.933Z,6.50
2018-04-15T04:48:24.369Z,6.50
2018-04-15T04:49:26.044Z,5.90
2018-04-15T04:50:25.030Z,7.20
2018-04-15T04:51:27.757Z,9.50
2018-04-15T04:52:25.854Z,6.90
2018-04-15T04:53:23.394Z,8.50
2018-04-15T04:54:23.288Z,8.00
2018-04-15T04:55:23.372Z,7.00
2018-04-15T04:56:23.532Z,6.20
2018-04-15T04:57:23.700Z,6.40
2018-04-15T04:58:23.872Z,8.00
2018-04-15T04:59:24.050Z,7.70
2018-04-15T05:00:24.238Z,6.50
2018-04-15T05:01:27.368Z,5.90
2018-04-15T05:02:24.615Z,6.70
2018-04-15T05:03:24.782Z,6.10
2018-04-15T05:04:24.960Z,6.20
2018-04-15T05:05:25.144Z,6.50
2018-04-15T05:06:25.330Z,7.10
2018-04-15T05:07:25.507Z,7.50
2018-04-15T05:08:25.684Z,6.90
2018-04-15T05:09:25.857Z,5.70
2018-04-15T05:10:26.037Z,7.30
2018-04-15T05:11:26.234Z,7.40
2018-04-15T05:12:26.416Z,9.00
2018-04-15T05:13:26.615Z,6.40
2018-04-15T05:14:26.772Z,7.20
2018-04-15T05:15:26.957Z,5.90
2018-04-15T05:16:27.127Z,6.40
2018-04-15T05:17:27.312Z,6.90
2018-04-15T05:18:27.487Z,7.10
2018-04-15T05:19:27.678Z,6.30
2018-04-15T05:20:27.870Z,6.00
2018-04-15T05:21:28.040Z,8.50
2018-04-15T05:22:28.223Z,6.00
2018-04-15T05:23:28.403Z,5.40
2018-04-15T05:24:28.608Z,5.30
2018-04-15T05:25:28.763Z,5.80
2018-04-15T05:26:28.940Z,6.30
2018-04-15T05:27:29.123Z,5.10
2018-04-15T05:28:29.306Z,7.00
2018-04-15T05:29:29.478Z,5.90
2018-04-15T05:30:29.655Z,5.20
2018-04-15T05:31:29.852Z,6.50
2018-04-15T05:32:30.030Z,6.30
2018-04-15T05:33:30.222Z,5.30
2018-04-15T05:34:30.401Z,6.10
2018-04-15T05:35:30.587Z,5.30
2018-04-15T05:36:30.757Z,6.20
2018-04-15T05:37:30.939Z,5.70
2018-04-15T05:38:31.110Z,5.40
2018-04-15T05:39:31.315Z,5.70
2018-04-15T05:40:31.475Z,5.00
2018-04-15T05:41:31.656Z,4.40
2018-04-15T05:42:31.823Z,5.40
2018-04-15T05:43:31.998Z,5.50
2018-04-15T05:44:32.181Z,4.70
2018-04-15T05:45:32.358Z,6.20
2018-04-15T05:46:32.536Z,5.70
2018-04-15T05:47:32.852Z,5.00
2018-04-15T05:48:32.865Z,4.40
2018-04-15T05:49:33.040Z,4.20
2018-04-15T05:50:33.226Z,5.00
2018-04-15T05:51:33.409Z,5.70
2018-04-15T05:52:33.591Z,4.70
2018-04-15T05:53:33.766Z,4.30
2018-04-15T05:54:33.946Z,3.90
2018-04-15T05:55:34.127Z,3.90
2018-04-15T05:56:34.303Z,4.30
2018-04-15T05:57:34.483Z,4.70
2018-04-15T05:58:34.660Z,4.70
2018-04-15T05:59:34.864Z,4.00
2018-04-15T06:00:35.004Z,3.60
2018-04-15T06:01:35.180Z,5.70
2018-04-15T06:02:35.361Z,4.60
2018-04-15T06:03:35.552Z,5.40
2018-04-15T06:04:35.726Z,4.00
2018-04-15T06:05:35.912Z,5.10
2018-04-15T06:06:36.093Z,4.00
2018-04-15T06:07:36.275Z,3.90
2018-04-15T06:08:36.459Z,3.60
2018-04-15T06:09:36.639Z,3.70
2018-04-15T06:10:36.810Z,3.80
2018-04-15T06:11:36.998Z,5.50
2018-04-15T06:12:37.174Z,3.90
2018-04-15T06:13:37.352Z,5.60
2018-04-15T06:14:37.532Z,18.40
2018-04-15T06:15:38.554Z,22.60
2018-04-15T06:16:37.883Z,16.60
2018-04-15T06:17:38.045Z,17.40
2018-04-15T06:18:38.225Z,11.30
2018-04-15T06:19:38.402Z,12.80
2018-04-15T06:20:38.579Z,15.10
2018-04-15T06:21:38.767Z,20.90
2018-04-15T06:22:38.943Z,23.50
2018-04-15T06:23:39.123Z,20.60
2018-04-15T06:24:39.344Z,14.20
2018-04-15T06:25:39.484Z,13.30
2018-04-15T06:26:39.656Z,7.90
2018-04-15T06:27:39.838Z,9.50
2018-04-15T06:28:40.016Z,11.40
2018-04-15T06:29:40.196Z,11.10
2018-04-15T06:30:40.375Z,9.00
2018-04-15T06:31:40.557Z,10.70
2018-04-15T06:32:40.729Z,10.60
2018-04-15T06:33:40.909Z,10.30
2018-04-15T06:34:41.091Z,10.00
2018-04-15T06:35:41.267Z,11.50
2018-04-15T06:36:41.477Z,11.30
2018-04-15T06:37:41.621Z,11.60
2018-04-15T06:38:41.796Z,10.40
2018-04-15T06:39:41.973Z,8.50
2018-04-15T06:40:42.150Z,7.80
2018-04-15T06:41:42.324Z,6.50
2018-04-15T06:42:42.498Z,7.40
2018-04-15T06:43:42.678Z,6.80
2018-04-15T06:44:42.851Z,7.70
2018-04-15T06:45:43.036Z,6.80
2018-04-15T06:46:43.214Z,6.90
2018-04-15T06:47:43.403Z,6.50
2018-04-15T06:48:43.597Z,7.30
2018-04-15T06:49:43.790Z,7.20
2018-04-15T06:50:43.982Z,6.30
2018-04-15T06:51:44.168Z,5.70
2018-04-15T06:52:44.345Z,6.30
2018-04-15T06:53:44.536Z,6.50
2018-04-15T06:54:44.705Z,5.00
2018-04-15T06:55:46.580Z,5.40
2018-04-15T06:56:45.352Z,5.60
2018-04-15T06:57:45.655Z,6.70
2018-04-15T06:58:45.457Z,5.20
2018-04-15T06:59:45.649Z,5.60
2018-04-15T07:00:45.823Z,5.60
2018-04-15T07:01:46.091Z,5.50
2018-04-15T07:02:46.130Z,4.80
2018-04-15T07:03:46.316Z,7.40
2018-04-15T07:04:46.543Z,5.50
2018-04-15T07:05:46.705Z,5.80
2018-04-15T07:06:46.885Z,5.20
2018-04-15T07:07:47.063Z,5.70
2018-04-15T07:08:47.239Z,6.00
2018-04-15T07:09:47.456Z,5.30
2018-04-15T07:10:47.755Z,6.50
2018-04-15T07:11:47.742Z,5.00
2018-04-15T07:12:48.074Z,5.00
2018-04-15T07:13:48.042Z,5.00
2018-04-15T07:14:48.290Z,4.80
2018-04-15T07:15:48.659Z,6.10
2018-04-15T07:16:48.897Z,5.40
2018-04-15T07:17:48.946Z,5.00
2018-04-15T07:18:49.885Z,5.40
2018-04-15T07:19:49.698Z,6.20
2018-04-15T07:20:51.085Z,5.80
2018-04-15T07:21:50.882Z,5.20
2018-04-15T07:22:51.254Z,6.10
2018-04-15T07:23:49.759Z,5.50
2018-04-15T07:24:51.549Z,5.40
2018-04-15T07:25:50.298Z,6.10
2018-04-15T07:26:50.567Z,5.70
2018-04-15T07:27:50.526Z,7.20
2018-04-15T07:28:50.761Z,7.00
2018-04-15T07:29:50.998Z,6.10
2018-04-15T07:30:50.911Z,5.40
2018-04-15T07:31:51.259Z,6.70
2018-04-15T07:32:53.029Z,5.90
2018-04-15T07:33:51.623Z,6.60
2018-04-15T07:34:51.631Z,5.60
2018-04-15T07:35:52.992Z,7.10
2018-04-15T07:36:52.007Z,6.10
2018-04-15T07:37:52.218Z,5.80
2018-04-15T07:38:52.385Z,6.10
2018-04-15T07:39:52.651Z,5.40
2018-04-15T07:40:52.789Z,5.10
2018-04-15T07:41:52.969Z,5.20
2018-04-15T07:42:53.163Z,5.70
2018-04-15T07:43:53.362Z,4.70
2018-04-15T07:44:53.545Z,4.60
2018-04-15T07:45:53.768Z,4.80
2018-04-15T07:46:53.921Z,5.90
2018-04-15T07:47:54.156Z,4.80
2018-04-15T07:48:54.351Z,4.90
2018-04-15T07:49:54.516Z,4.70
2018-04-15T07:50:54.882Z,4.60
2018-04-15T07:51:54.859Z,4.90
2018-04-15T07:52:55.061Z,4.70
2018-04-15T07:53:55.294Z,4.50
2018-04-15T07:54:55.463Z,4.60
2018-04-15T07:55:55.680Z,5.20
2018-04-15T07:56:55.867Z,5.30
2018-04-15T07:57:56.049Z,4.80
2018-04-15T07:58:56.240Z,5.20
2018-04-15T07:59:56.420Z,5.30
2018-04-15T08:00:57.831Z,5.20
2018-04-15T08:01:58.126Z,5.50
2018-04-15T08:02:57.356Z,4.70
2018-04-15T08:03:57.604Z,7.40
2018-04-15T08:04:57.432Z,5.30
2018-04-15T08:05:57.893Z,5.50
2018-04-15T08:06:57.721Z,5.00
2018-04-15T08:07:58.452Z,5.70
2018-04-15T08:08:58.128Z,4.50
2018-04-15T08:09:58.303Z,5.90
2018-04-15T08:10:58.499Z,6.10
2018-04-15T08:11:58.676Z,4.70
2018-04-15T08:12:58.851Z,4.90
2018-04-15T08:13:59.035Z,4.80
2018-04-15T08:14:59.217Z,5.10
2018-04-15T08:15:59.396Z,5.50
2018-04-15T08:16:59.591Z,5.90
2018-04-15T08:17:59.760Z,4.50
2018-04-15T08:19:00.087Z,6.20
2018-04-15T08:20:00.110Z,4.70
2018-04-15T08:21:00.292Z,5.20
2018-04-15T08:22:00.483Z,4.90
2018-04-15T08:23:00.661Z,4.50
2018-04-15T08:24:01.105Z,5.00
2018-04-15T08:25:01.023Z,4.90
2018-04-15T08:26:01.207Z,6.20
2018-04-15T08:27:01.627Z,7.60
2018-04-15T08:28:01.555Z,5.30
2018-04-15T08:29:01.774Z,4.30
2018-04-15T08:30:01.938Z,4.70
2018-04-15T08:31:01.992Z,4.80
2018-04-15T08:32:02.184Z,4.00
2018-04-15T08:33:02.633Z,5.60
2018-04-15T08:34:02.547Z,4.20
2018-04-15T08:35:02.730Z,4.50
2018-04-15T08:36:02.915Z,5.20
2018-04-15T08:37:03.094Z,4.70
2018-04-15T08:38:03.276Z,4.40
2018-04-15T08:39:03.469Z,4.30
2018-04-15T08:40:03.645Z,4.40
2018-04-15T08:41:05.436Z,3.90
2018-04-15T08:42:06.269Z,4.90
2018-04-15T08:43:05.386Z,5.60
2018-04-15T08:44:07.722Z,5.00
2018-04-15T08:45:04.701Z,4.40
2018-04-15T08:46:04.847Z,4.50
2018-04-15T08:47:05.322Z,4.50
2018-04-15T08:48:05.211Z,4.70
2018-04-15T08:49:05.355Z,4.90
2018-04-15T08:50:09.776Z,4.10
2018-04-15T08:51:08.110Z,4.10
2018-04-15T08:52:06.263Z,4.90
2018-04-15T08:53:07.051Z,6.40
2018-04-15T08:54:06.624Z,4.90
2018-04-15T08:55:06.988Z,5.50
2018-04-15T08:56:06.541Z,5.00
2018-04-15T08:57:06.809Z,5.40
2018-04-15T08:58:07.234Z,5.30
2018-04-15T08:59:07.113Z,6.70
2018-04-15T09:00:07.388Z,4.60
2018-04-15T09:01:07.407Z,4.70
2018-04-15T09:02:08.997Z,4.90
2018-04-15T09:03:07.553Z,5.00
2018-04-15T09:04:07.789Z,5.60
2018-04-15T09:05:09.625Z,4.60
2018-04-15T09:06:08.171Z,4.40
2018-04-15T09:07:08.247Z,4.50
2018-04-15T09:08:08.397Z,4.90
2018-04-15T09:09:08.784Z,6.60
2018-04-15T09:10:08.879Z,4.40
2018-04-15T09:11:09.169Z,5.10
2018-04-15T09:12:09.276Z,4.20
2018-04-15T09:13:09.388Z,5.60
2018-04-15T09:14:09.499Z,5.50
2018-04-15T09:15:09.619Z,5.90
2018-04-15T09:16:10.380Z,5.70
2018-04-15T09:17:10.037Z,6.00
2018-04-15T09:18:10.334Z,6.00
2018-04-15T09:19:10.371Z,7.70
2018-04-15T09:20:10.245Z,9.50
2018-04-15T09:21:10.435Z,6.50
2018-04-15T09:22:10.669Z,7.30
2018-04-15T09:23:10.997Z,7.00
2018-04-15T09:24:11.619Z,6.50
2018-04-15T09:25:11.691Z,6.80
2018-04-15T09:26:11.464Z,5.90
2018-04-15T09:27:11.646Z,5.70
2018-04-15T09:28:11.648Z,6.00
2018-04-15T09:29:11.848Z,5.50
2018-04-15T09:30:12.056Z,5.40
2018-04-15T09:31:12.232Z,5.10
2018-04-15T09:32:12.429Z,5.50
2018-04-15T09:33:12.658Z,4.70
2018-04-15T09:34:12.953Z,4.80
2018-04-15T09:35:13.047Z,4.90
2018-04-15T09:36:13.229Z,4.50
2018-04-15T09:37:13.424Z,4.60
2018-04-15T09:38:13.628Z,4.70
2018-04-15T09:39:13.816Z,5.30
2018-04-15T09:40:14.001Z,4.60
2018-04-15T09:41:14.205Z,4.70
2018-04-15T09:42:14.412Z,5.00
2018-04-15T09:43:14.639Z,5.10
2018-04-15T09:44:14.876Z,5.50
2018-04-15T09:45:15.069Z,5.50
2018-04-15T09:46:15.255Z,5.00
2018-04-15T09:47:15.449Z,5.30
2018-04-15T09:48:15.687Z,5.30
2018-04-15T09:49:15.847Z,4.90
2018-04-15T09:50:16.039Z,5.30
2018-04-15T09:51:16.230Z,5.10
2018-04-15T09:52:16.420Z,4.90
2018-04-15T09:53:16.612Z,4.20
2018-04-15T09:54:16.872Z,4.40
2018-04-15T09:55:17.090Z,3.50
2018-04-15T09:56:17.244Z,3.60
2018-04-15T09:57:17.505Z,3.50
2018-04-15T09:58:17.674Z,3.60
2018-04-15T09:59:17.870Z,3.50
2018-04-15T10:00:18.123Z,3.60
2018-04-15T10:01:18.295Z,3.80
2018-04-15T10:02:18.488Z,3.70
2018-04-15T10:03:18.682Z,3.70
2018-04-15T10:04:18.863Z,3.20
2018-04-15T10:05:19.067Z,3.40
2018-04-15T10:06:19.255Z,3.20
2018-04-15T10:07:19.449Z,3.00
2018-04-15T10:08:19.662Z,3.00
2018-04-15T10:09:19.851Z,3.50
2018-04-15T10:10:20.022Z,3.60
2018-04-15T10:11:20.943Z,3.50
2018-04-15T10:12:20.414Z,4.00
2018-04-15T10:13:20.674Z,3.40
2018-04-15T10:14:20.788Z,3.10
2018-04-15T10:15:20.977Z,3.20
2018-04-15T10:16:21.181Z,3.30
2018-04-15T10:17:21.367Z,3.50
2018-04-15T10:18:21.549Z,4.30
2018-04-15T10:19:21.742Z,3.40
2018-04-15T10:20:21.928Z,3.90
2018-04-15T10:21:22.122Z,3.40
2018-04-15T10:22:22.312Z,3.30
2018-04-15T10:23:22.509Z,3.70
2018-04-15T10:24:22.699Z,3.30
2018-04-15T10:25:22.878Z,3.70
2018-04-15T10:26:23.069Z,3.20
2018-04-15T10:27:23.260Z,3.60
2018-04-15T10:28:23.451Z,4.20
2018-04-15T10:29:23.728Z,3.20
2018-04-15T10:30:23.793Z,3.60
2018-04-15T10:31:23.991Z,3.70
2018-04-15T10:32:24.190Z,3.50
2018-04-15T10:33:24.384Z,3.90
2018-04-15T10:34:24.572Z,3.40
2018-04-15T10:35:24.761Z,3.50
2018-04-15T10:36:24.950Z,3.70
2018-04-15T10:37:25.152Z,4.10
2018-04-15T10:38:25.349Z,3.20
2018-04-15T10:39:25.576Z,3.10
2018-04-15T10:40:25.732Z,3.40
2018-04-15T10:41:25.923Z,3.60
2018-04-15T10:42:26.115Z,3.40
2018-04-15T10:43:26.320Z,3.50
2018-04-15T10:44:26.530Z,4.20
2018-04-15T10:45:26.724Z,3.50
2018-04-15T10:46:26.946Z,3.60
2018-04-15T10:47:27.164Z,3.50
2018-04-15T10:48:27.351Z,4.30
2018-04-15T10:49:27.539Z,3.20
2018-04-15T10:50:27.728Z,3.50
2018-04-15T10:51:27.915Z,3.30
2018-04-15T10:52:28.104Z,3.50
2018-04-15T10:53:28.288Z,3.50
2018-04-15T10:54:28.484Z,3.40
2018-04-15T10:55:28.681Z,3.30
2018-04-15T10:56:28.873Z,3.80
2018-04-15T10:57:29.118Z,3.10
2018-04-15T10:58:29.634Z,3.10
2018-04-15T10:59:29.948Z,2.90
2018-04-15T11:00:29.592Z,3.00
2018-04-15T11:01:29.779Z,3.90
2018-04-15T11:02:29.961Z,3.60
2018-04-15T11:03:30.170Z,2.80
2018-04-15T11:04:30.351Z,3.50
2018-04-15T11:05:30.568Z,3.00
2018-04-15T11:06:30.737Z,2.60
2018-04-15T11:07:30.932Z,3.70
2018-04-15T11:08:31.118Z,3.00
2018-04-15T11:09:31.311Z,3.40
2018-04-15T11:10:31.500Z,3.10
2018-04-15T11:11:31.687Z,3.50
2018-04-15T11:12:31.874Z,3.00
2018-04-15T11:13:33.990Z,3.00
2018-04-15T11:14:33.813Z,3.60
2018-04-15T11:15:32.457Z,3.70
2018-04-15T11:16:32.639Z,2.60
2018-04-15T11:17:32.842Z,3.70
2018-04-15T11:18:33.090Z,3.00
2018-04-15T11:19:33.914Z,3.50
2018-04-15T11:20:33.797Z,3.40
2018-04-15T11:21:33.587Z,2.80
2018-04-15T11:22:33.740Z,3.10
2018-04-15T11:23:33.935Z,3.90
2018-04-15T11:24:34.113Z,3.90
2018-04-15T11:25:34.336Z,3.60
2018-04-15T11:26:34.881Z,3.20
2018-04-15T11:27:34.693Z,3.40
2018-04-15T11:28:34.880Z,3.30
2018-04-15T11:29:35.063Z,3.30
2018-04-15T11:30:35.257Z,3.50
2018-04-15T11:31:35.466Z,3.20
2018-04-15T11:32:36.096Z,3.00
2018-04-15T11:33:36.489Z,3.70
2018-04-15T11:34:36.293Z,3.20
2018-04-15T11:35:36.449Z,3.20
2018-04-15T11:36:36.516Z,3.80
2018-04-15T11:37:36.389Z,3.00
2018-04-15T11:38:36.585Z,2.90
2018-04-15T11:39:36.773Z,3.30
2018-04-15T11:40:36.963Z,3.60
2018-04-15T11:41:37.152Z,3.40
2018-04-15T11:42:38.634Z,5.10
2018-04-15T11:43:37.596Z,3.40
2018-04-15T11:44:37.748Z,4.40
2018-04-15T11:45:37.942Z,3.80
2018-04-15T11:46:38.120Z,4.60
2018-04-15T11:47:38.359Z,3.40
2018-04-15T11:48:38.549Z,3.70
2018-04-15T11:49:38.898Z,4.30
2018-04-15T11:50:39.549Z,3.80
2018-04-15T11:51:39.064Z,2.90
2018-04-15T11:52:39.209Z,3.30
2018-04-15T11:53:39.426Z,3.30
2018-04-15T11:54:39.596Z,3.10
2018-04-15T11:55:39.770Z,3.50
2018-04-15T11:56:39.956Z,3.20
2018-04-15T11:57:40.557Z,3.00
2018-04-15T11:58:40.547Z,3.70
2018-04-15T11:59:40.442Z,4.10
2018-04-15T12:00:40.626Z,3.60
2018-04-15T12:01:40.813Z,4.20
2018-04-15T12:02:41.003Z,4.00
2018-04-15T12:03:41.183Z,3.50
2018-04-15T12:04:41.378Z,3.50
2018-04-15T12:05:41.570Z,3.20
2018-04-15T12:06:41.762Z,3.40
2018-04-15T12:07:41.956Z,2.90
2018-04-15T12:08:42.137Z,3.00
2018-04-15T12:09:42.326Z,3.00
2018-04-15T12:10:42.534Z,3.10
2018-04-15T12:11:42.704Z,3.60
2018-04-15T12:12:42.897Z,2.90
2018-04-15T12:13:43.089Z,3.00
2018-04-15T12:14:43.982Z,3.40
2018-04-15T12:15:43.699Z,4.10
2018-04-15T12:16:43.643Z,3.70
2018-04-15T12:17:43.826Z,3.40
2018-04-15T12:18:44.034Z,2.70
2018-04-15T12:19:44.214Z,2.80
2018-04-15T12:20:44.412Z,3.20
2018-04-15T12:21:44.633Z,2.40
2018-04-15T12:22:44.811Z,3.40
2018-04-15T12:23:45.003Z,3.00
2018-04-15T12:24:48.730Z,2.40
2018-04-15T12:25:46.282Z,2.90
2018-04-15T12:26:47.651Z,2.80
2018-04-15T12:27:45.666Z,2.70
2018-04-15T12:28:45.866Z,2.60
2018-04-15T12:29:46.049Z,2.20
2018-04-15T12:30:46.230Z,3.10
2018-04-15T12:31:46.418Z,2.80
2018-04-15T12:32:46.602Z,2.50
2018-04-15T12:33:46.792Z,2.70
2018-04-15T12:34:46.984Z,3.20
2018-04-15T12:35:47.188Z,2.90
2018-04-15T12:36:47.341Z,3.60
2018-04-15T12:37:47.525Z,2.40
2018-04-15T12:38:47.715Z,2.30
2018-04-15T12:39:47.893Z,2.60
2018-04-15T12:40:48.068Z,2.50
2018-04-15T12:41:48.250Z,2.30
2018-04-15T12:42:48.434Z,2.20
2018-04-15T12:43:48.610Z,2.30
2018-04-15T12:44:48.796Z,1.80
2018-04-15T12:45:48.982Z,2.00
2018-04-15T12:46:49.170Z,3.60
2018-04-15T12:47:49.354Z,2.20
2018-04-15T12:48:49.533Z,2.20
2018-04-15T12:49:49.719Z,2.50
2018-04-15T12:50:49.911Z,3.00
2018-04-15T12:51:50.098Z,2.10
2018-04-15T12:52:50.288Z,2.20
2018-04-15T12:53:50.457Z,2.30
2018-04-15T12:54:52.633Z,2.80
2018-04-15T12:55:54.537Z,2.00
2018-04-15T12:56:52.161Z,2.00
2018-04-15T12:57:54.234Z,2.30
2018-04-15T12:58:51.365Z,2.90
2018-04-15T12:59:51.545Z,2.40
2018-04-15T13:00:51.725Z,2.40
2018-04-15T13:01:51.902Z,2.70
2018-04-15T13:02:52.079Z,2.90
2018-04-15T13:03:52.262Z,2.30
2018-04-15T13:04:52.446Z,2.30
2018-04-15T13:05:52.626Z,2.30
2018-04-15T13:06:52.805Z,2.00
2018-04-15T13:07:52.983Z,2.60
2018-04-15T13:08:53.163Z,2.20
2018-04-15T13:09:53.349Z,2.70
2018-04-15T13:10:53.555Z,2.90
2018-04-15T13:11:53.750Z,2.20
2018-04-15T13:12:53.928Z,2.20
2018-04-15T13:13:54.125Z,2.70
2018-04-15T13:14:54.301Z,2.90
2018-04-15T13:15:54.490Z,2.00
2018-04-15T13:16:54.693Z,2.70
2018-04-15T13:17:54.861Z,2.10
2018-04-15T13:18:55.036Z,1.90
2018-04-15T13:19:55.220Z,2.20